Time;durP1;ratioP1;P1;durP2;ratioP2;P2;SDS_P1;SDS_P2;PMS_P1;PMS_P2;Temp;Humidity;BMP_temperature;BMP_pressure;BME280_temperature;BME280_humidity;BME280_pressure;Samples;Min_cycle;Max_cycle;Signal;HPM_P1;HPM_P2
2022/01/08 00:01:53;;;;;;;55.57;50.03;;;;;;;-145.93;100.00;59239.47;4936439;23;20054;-86
2022/01/08 00:04:18;;;;;;;51.60;47.23;;;;;;;-145.93;100.00;59239.47;4937097;29;20038;-86
2022/01/08 00:06:43;;;;;;;52.47;47.80;;;;;;;-145.93;100.00;59239.47;4921950;29;20083;-85
2022/01/08 00:09:12;;;;;;;52.50;47.90;;;;;;;-145.93;100.00;59239.47;4936801;29;20053;-84
2022/01/08 00:11:41;;;;;;;53.08;48.35;;;;;;;-145.93;100.00;59239.47;4921270;29;20055;-85
2022/01/08 00:14:10;;;;;;;53.53;48.55;;;;;;;-145.93;100.00;59239.47;4925940;29;20037;-84
2022/01/08 00:16:37;;;;;;;54.05;49.05;;;;;;;-145.93;100.00;59239.47;4926538;29;20028;-86
2022/01/08 00:19:06;;;;;;;55.25;49.65;;;;;;;-145.93;100.00;59239.47;4910296;29;20032;-86
2022/01/08 00:21:32;;;;;;;55.15;49.88;;;;;;;-145.93;100.00;59239.47;4922809;29;20055;-86
2022/01/08 00:23:57;;;;;;;54.70;49.53;;;;;;;-145.93;100.00;59239.47;4911844;29;20039;-86
2022/01/08 00:26:23;;;;;;;55.33;50.13;;;;;;;-145.93;100.00;59239.47;4921308;29;20028;-87
2022/01/08 00:28:49;;;;;;;54.77;49.73;;;;;;;-145.93;100.00;59239.47;4930887;29;20039;-86
2022/01/08 00:31:20;;;;;;;55.40;50.28;;;;;;;-145.93;100.00;59239.47;4927730;29;20058;-87
2022/01/08 00:33:47;;;;;;;54.45;49.13;;;;;;;-145.93;100.00;59239.47;4914074;29;20122;-86
2022/01/08 00:36:13;;;;;;;56.10;50.92;;;;;;;-145.93;100.00;59239.47;4906594;29;20048;-86
2022/01/08 00:38:38;;;;;;;55.15;50.22;;;;;;;-145.93;100.00;59239.47;4887007;29;20028;-87
2022/01/08 00:41:04;;;;;;;54.63;49.43;;;;;;;-145.93;100.00;59239.47;4927250;29;20051;-85
2022/01/08 00:43:29;;;;;;;55.70;50.47;;;;;;;-145.93;100.00;59239.47;4914838;29;20097;-86
2022/01/08 00:45:55;;;;;;;54.00;48.90;;;;;;;-145.93;100.00;59239.47;4903859;29;20020;-86
2022/01/08 00:48:20;;;;;;;54.97;49.83;;;;;;;-145.93;100.00;59239.47;4909108;29;20020;-85
2022/01/08 00:50:49;;;;;;;54.23;49.33;;;;;;;-145.93;100.00;59239.47;4916033;29;20094;-86
2022/01/08 00:53:15;;;;;;;56.10;50.70;;;;;;;-145.93;100.00;59239.47;4918463;29;20036;-86
2022/01/08 00:55:44;;;;;;;55.50;50.30;;;;;;;-145.93;100.00;59239.47;4941495;28;20064;-86
2022/01/08 00:58:09;;;;;;;55.28;50.15;;;;;;;-145.93;100.00;59239.47;4910856;29;20295;-88
2022/01/08 01:00:34;;;;;;;58.20;52.10;;;;;;;-145.93;100.00;59239.47;4923502;29;20040;-86
2022/01/08 01:03:00;;;;;;;57.37;51.60;;;;;;;-145.93;100.00;59239.47;4951061;29;20042;-85
2022/01/08 01:05:28;;;;;;;55.80;50.47;;;;;;;-145.93;100.00;59239.47;4915995;29;20072;-85
2022/01/08 01:07:54;;;;;;;56.90;51.60;;;;;;;-145.93;100.00;59239.47;4952995;29;20064;-85
2022/01/08 01:10:22;;;;;;;59.28;52.95;;;;;;;-145.93;100.00;59239.47;4939752;29;20020;-85
2022/01/08 01:12:47;;;;;;;62.28;54.72;;;;;;;-145.93;100.00;59239.47;4914852;29;20033;-85
2022/01/08 01:15:17;;;;;;;60.50;54.13;;;;;;;-145.93;100.00;59239.47;4937115;29;20023;-84
2022/01/08 01:17:44;;;;;;;58.38;52.70;;;;;;;-145.93;100.00;59239.47;4927098;29;20012;-85
2022/01/08 01:20:14;;;;;;;58.45;52.63;;;;;;;-145.93;100.00;59239.47;4911152;29;20016;-82
2022/01/08 01:22:48;;;;;;;61.63;53.92;;;;;;;-145.93;100.00;59239.47;4911779;29;20032;-83
2022/01/08 01:25:18;;;;;;;58.45;52.55;;;;;;;-145.93;100.00;59239.47;4919157;29;20014;-83
2022/01/08 01:30:49;;;;;;;56.97;51.47;;;;;;;-145.93;100.00;59239.47;4913194;29;20024;-85
2022/01/08 01:41:51;;;;;;;59.30;53.13;;;;;;;-145.93;100.00;59239.47;4931340;29;20047;-85
2022/01/08 01:47:02;;;;;;;57.87;52.43;;;;;;;-145.93;100.00;59239.47;4948352;29;20074;-84
2022/01/08 01:49:35;;;;;;;57.10;51.75;;;;;;;-145.93;100.00;59239.47;4893007;29;20541;-85
2022/01/08 01:52:02;;;;;;;59.03;53.20;;;;;;;-145.93;100.00;59239.47;4923940;29;20024;-83
2022/01/08 01:54:30;;;;;;;59.40;52.55;;;;;;;-145.93;100.00;59239.47;4926667;29;20039;-84
2022/01/08 01:56:57;;;;;;;58.80;52.72;;;;;;;-145.93;100.00;59239.47;4915867;29;20020;-83
2022/01/08 01:59:24;;;;;;;58.13;52.63;;;;;;;-145.93;100.00;59239.47;4917842;29;20075;-84
2022/01/08 02:01:49;;;;;;;56.00;50.70;;;;;;;-145.93;100.00;59239.47;4932827;29;20051;-83
2022/01/08 02:04:15;;;;;;;58.07;52.23;;;;;;;-145.93;100.00;59239.47;4902440;29;20091;-83
2022/01/08 02:06:40;;;;;;;56.23;50.90;;;;;;;-145.93;100.00;59239.47;4925181;29;20024;-84
2022/01/08 02:09:06;;;;;;;56.47;51.10;;;;;;;-145.93;100.00;59239.47;4910351;29;20020;-83
2022/01/08 02:12:07;;;;;;;57.23;51.40;;;;;;;-145.93;100.00;59239.47;4920415;29;20024;-85
2022/01/08 02:14:35;;;;;;;56.35;51.22;;;;;;;-145.93;100.00;59239.47;4903898;29;20038;-84
2022/01/08 02:17:03;;;;;;;56.58;50.67;;;;;;;-145.93;100.00;59239.47;4919166;29;20062;-86
2022/01/08 02:19:28;;;;;;;56.50;51.20;;;;;;;-145.93;100.00;59239.47;4938585;29;20055;-83
2022/01/08 02:21:56;;;;;;;56.50;51.20;;;;;;;-145.93;100.00;59239.47;4924916;29;20024;-85
2022/01/08 02:24:22;;;;;;;56.30;50.90;;;;;;;-145.93;100.00;59239.47;4912406;29;20032;-82
2022/01/08 02:26:48;;;;;;;58.25;52.33;;;;;;;-145.93;100.00;59239.47;4888910;29;20233;-84
2022/01/08 02:29:15;;;;;;;58.25;52.65;;;;;;;-145.93;100.00;59239.47;4918250;29;20056;-85
2022/01/08 02:31:40;;;;;;;57.45;52.13;;;;;;;-145.93;100.00;59239.47;4902006;29;20031;-83
2022/01/08 02:34:09;;;;;;;57.30;51.90;;;;;;;-145.93;100.00;59239.47;4893525;29;20036;-84
2022/01/08 02:36:34;;;;;;;56.85;51.28;;;;;;;-145.93;100.00;59239.47;4898365;29;20025;-84
2022/01/08 02:39:03;;;;;;;57.70;52.13;;;;;;;-145.93;100.00;59239.47;4903324;29;20031;-84
2022/01/08 02:41:34;;;;;;;56.78;51.17;;;;;;;-145.93;100.00;59239.47;4909177;29;20032;-83
2022/01/08 02:44:00;;;;;;;57.20;51.45;;;;;;;-145.93;100.00;59239.47;4900844;29;20027;-85
2022/01/08 02:46:28;;;;;;;56.17;50.73;;;;;;;-145.93;100.00;59239.47;4915142;29;20020;-84
2022/01/08 02:48:53;;;;;;;56.95;51.38;;;;;;;-145.93;100.00;59239.47;4918479;29;20100;-85
2022/01/08 02:51:18;;;;;;;57.90;52.00;;;;;;;-145.93;100.00;59239.47;4922064;29;20044;-86
2022/01/08 02:53:44;;;;;;;55.87;50.27;;;;;;;-145.93;100.00;59239.47;4907886;29;20035;-86
2022/01/08 02:56:09;;;;;;;55.67;50.43;;;;;;;-145.93;100.00;59239.47;4904604;29;20055;-84
2022/01/08 02:58:35;;;;;;;61.67;54.27;;;;;;;-145.93;100.00;59239.47;4919305;29;20036;-83
2022/01/08 03:01:02;;;;;;;57.40;51.60;;;;;;;-145.93;100.00;59239.47;4918335;29;20032;-86
2022/01/08 03:03:30;;;;;;;58.00;52.25;;;;;;;-145.93;100.00;59239.47;4904854;29;20080;-83
2022/01/08 03:05:56;;;;;;;57.15;51.65;;;;;;;-145.93;100.00;59239.47;4904265;29;20024;-83
2022/01/08 03:08:21;;;;;;;58.57;52.70;;;;;;;-145.93;100.00;59239.47;4920089;29;20027;-83
2022/01/08 03:10:49;;;;;;;56.43;50.83;;;;;;;-145.93;100.00;59239.47;4912915;29;20035;-83
2022/01/08 03:13:15;;;;;;;57.03;51.53;;;;;;;-145.93;100.00;59239.47;4903421;29;20257;-86
2022/01/08 03:15:41;;;;;;;56.20;50.80;;;;;;;-145.93;100.00;59239.47;4910394;29;20711;-86
2022/01/08 03:18:07;;;;;;;55.55;50.30;;;;;;;-145.93;100.00;59239.47;4885579;29;20057;-84
2022/01/08 03:20:44;;;;;;;55.75;50.45;;;;;;;-145.93;100.00;59239.47;4920708;29;20024;-85
2022/01/08 03:23:15;;;;;;;56.58;51.10;;;;;;;-145.93;100.00;59239.47;4909676;29;20059;-83
2022/01/08 03:25:41;;;;;;;57.03;51.58;;;;;;;-145.93;100.00;59239.47;4909820;29;20028;-84
2022/01/08 03:28:07;;;;;;;57.80;51.83;;;;;;;-145.93;100.00;59239.47;4913678;29;20028;-84
2022/01/08 03:30:34;;;;;;;55.70;50.60;;;;;;;-145.93;100.00;59239.47;4921484;29;20030;-85
2022/01/08 03:32:59;;;;;;;57.60;51.63;;;;;;;-145.93;100.00;59239.47;4908173;29;20064;-84
2022/01/08 03:35:27;;;;;;;56.33;51.22;;;;;;;-145.93;100.00;59239.47;4911078;29;20047;-85
2022/01/08 03:37:53;;;;;;;56.00;50.78;;;;;;;-145.93;100.00;59239.47;4912117;29;20034;-86
2022/01/08 03:40:19;;;;;;;56.72;51.35;;;;;;;-145.93;100.00;59239.47;4899508;29;20025;-85
2022/01/08 03:42:44;;;;;;;60.10;53.50;;;;;;;-145.93;100.00;59239.47;4931443;29;20480;-83
2022/01/08 03:45:10;;;;;;;56.97;51.40;;;;;;;-145.93;100.00;59239.47;4916884;29;20391;-83
2022/01/08 03:50:13;;;;;;;56.80;51.25;;;;;;;-145.93;100.00;59239.47;4919842;29;20047;-83
2022/01/08 03:52:38;;;;;;;65.57;55.03;;;;;;;-145.93;100.00;59239.47;4892070;29;20057;-82
2022/01/08 03:55:06;;;;;;;56.70;51.13;;;;;;;-145.93;100.00;59239.47;4932677;29;20050;-84
2022/01/08 03:57:31;;;;;;;58.08;52.30;;;;;;;-145.93;100.00;59239.47;4926428;29;20012;-82
2022/01/08 03:59:57;;;;;;;57.87;52.20;;;;;;;-145.93;100.00;59239.47;4910484;29;20025;-80
2022/01/08 04:02:22;;;;;;;89.37;60.97;;;;;;;-145.93;100.00;59239.47;4896483;29;20020;-82
2022/01/08 04:04:51;;;;;;;56.60;51.20;;;;;;;-145.93;100.00;59239.47;4915878;29;20044;-84
2022/01/08 04:07:16;;;;;;;57.20;51.80;;;;;;;-145.93;100.00;59239.47;4922706;29;20136;-82
2022/01/08 04:09:42;;;;;;;60.77;54.33;;;;;;;-145.93;100.00;59239.47;4915467;29;20048;-83
2022/01/08 04:12:08;;;;;;;58.40;52.10;;;;;;;-145.93;100.00;59239.47;4899827;29;20039;-85
2022/01/08 04:14:49;;;;;;;;;;;;;;;-145.93;100.00;59239.47;4909862;29;20020;-84
2022/01/08 04:17:16;;;;;;;55.80;50.33;;;;;;;-145.93;100.00;59239.47;4917134;29;19922;-83
2022/01/08 04:19:45;;;;;;;60.67;54.33;;;;;;;-145.93;100.00;59239.47;4939190;29;20034;-85
2022/01/08 04:22:13;;;;;;;57.85;51.85;;;;;;;-145.93;100.00;59239.47;4923570;29;20032;-83
2022/01/08 04:24:40;;;;;;;58.75;52.53;;;;;;;-145.93;100.00;59239.47;4917642;29;20024;-85
2022/01/08 04:27:05;;;;;;;58.33;52.15;;;;;;;-145.93;100.00;59239.47;4914887;29;20038;-85
2022/01/08 04:29:31;;;;;;;57.07;51.67;;;;;;;-145.93;100.00;59239.47;4924353;29;20027;-83
2022/01/08 04:31:56;;;;;;;56.87;51.47;;;;;;;-145.93;100.00;59239.47;4939308;29;20099;-83
2022/01/08 04:34:21;;;;;;;59.90;54.00;;;;;;;-145.93;100.00;59239.47;4919467;29;20047;-84
2022/01/08 04:36:47;;;;;;;59.90;53.17;;;;;;;-145.93;100.00;59239.47;4945481;29;20027;-85
2022/01/08 04:39:12;;;;;;;59.20;52.90;;;;;;;-145.93;100.00;59239.47;4920264;29;20040;-85
2022/01/08 04:41:37;;;;;;;59.47;52.93;;;;;;;-145.93;100.00;59239.47;4917135;29;20043;-83
2022/01/08 04:44:06;;;;;;;59.97;53.47;;;;;;;-145.93;100.00;59239.47;4922226;29;20036;-82
2022/01/08 04:46:31;;;;;;;60.13;53.67;;;;;;;-145.93;100.00;59239.47;4922510;29;20024;-84
2022/01/08 04:48:57;;;;;;;62.10;54.47;;;;;;;-145.93;100.00;59239.47;4914103;29;20031;-84
2022/01/08 04:51:22;;;;;;;60.03;53.93;;;;;;;-145.93;100.00;59239.47;4923970;29;20035;-84
2022/01/08 04:53:47;;;;;;;58.40;52.67;;;;;;;-145.93;100.00;59239.47;4910555;29;20063;-82
2022/01/08 04:56:13;;;;;;;60.17;53.83;;;;;;;-145.93;100.00;59239.47;4928059;29;20047;-84
2022/01/08 04:58:38;;;;;;;60.13;53.93;;;;;;;-145.93;100.00;59239.47;4926279;29;20029;-87
2022/01/08 05:01:03;;;;;;;61.60;54.97;;;;;;;-145.93;100.00;59239.47;4924223;29;20025;-86
2022/01/08 05:03:29;;;;;;;58.73;52.93;;;;;;;-145.93;100.00;59239.47;4920529;29;20177;-85
2022/01/08 05:05:54;;;;;;;59.53;53.27;;;;;;;-145.93;100.00;59239.47;4927171;29;20031;-84
2022/01/08 05:08:20;;;;;;;59.40;53.37;;;;;;;-145.93;100.00;59239.47;4911391;29;20016;-84
2022/01/08 05:10:45;;;;;;;57.58;52.03;;;;;;;-145.93;100.00;59239.47;4912654;29;20028;-83
2022/01/08 05:13:11;;;;;;;58.30;52.50;;;;;;;-145.93;100.00;59239.47;4906535;29;20062;-84
2022/01/08 05:15:36;;;;;;;56.83;51.10;;;;;;;-145.93;100.00;59239.47;4936803;29;20478;-83
2022/01/08 05:18:04;;;;;;;57.17;51.37;;;;;;;-145.93;100.00;59239.47;4912798;29;20040;-84
2022/01/08 05:20:33;;;;;;;59.70;53.55;;;;;;;-145.93;100.00;59239.47;4913909;29;20020;-83
2022/01/08 05:23:02;;;;;;;57.42;51.53;;;;;;;-145.93;100.00;59239.47;4926826;29;20059;-85
2022/01/08 05:25:29;;;;;;;66.13;53.13;;;;;;;-145.93;100.00;59239.47;4910247;29;20043;-83
2022/01/08 05:27:55;;;;;;;59.03;53.17;;;;;;;-145.93;100.00;59239.47;4908571;29;20058;-84
2022/01/08 05:30:25;;;;;;;59.03;52.90;;;;;;;-145.93;100.00;59239.47;4928651;29;20032;-85
2022/01/08 05:32:50;;;;;;;57.75;51.72;;;;;;;-145.93;100.00;59239.47;4907255;29;20267;-84
2022/01/08 05:35:16;;;;;;;58.63;52.53;;;;;;;-145.93;100.00;59239.47;4896238;29;20023;-85
2022/01/08 05:37:42;;;;;;;56.60;50.93;;;;;;;-145.93;100.00;59239.47;4916003;29;20046;-84
2022/01/08 05:40:08;;;;;;;57.77;51.70;;;;;;;-145.93;100.00;59239.47;4913262;29;20028;-86
2022/01/08 05:42:34;;;;;;;62.72;54.00;;;;;;;-145.93;100.00;59239.47;4897482;29;20428;-83
2022/01/08 05:44:59;;;;;;;136.03;74.20;;;;;;;-145.93;100.00;59239.47;4917434;29;20043;-85
2022/01/08 05:47:29;;;;;;;60.10;53.77;;;;;;;-145.93;100.00;59239.47;4921154;29;20028;-82
2022/01/08 05:49:55;;;;;;;60.03;53.85;;;;;;;-145.93;100.00;59239.47;4932325;29;20055;-84
2022/01/08 05:52:20;;;;;;;70.07;56.03;;;;;;;-145.93;100.00;59239.47;4913287;29;20024;-83
2022/01/08 05:54:46;;;;;;;58.17;52.27;;;;;;;-145.93;100.00;59239.47;4920304;29;20262;-83
2022/01/08 05:57:11;;;;;;;57.97;52.03;;;;;;;-145.93;100.00;59239.47;4931627;29;20095;-83
2022/01/08 05:59:37;;;;;;;58.50;52.80;;;;;;;-145.93;100.00;59239.47;4941302;29;20265;-83
2022/01/08 06:02:02;;;;;;;58.13;52.43;;;;;;;-145.93;100.00;59239.47;4923479;29;20066;-80
2022/01/08 06:04:27;;;;;;;58.60;52.43;;;;;;;-145.93;100.00;59239.47;4934688;29;20038;-82
2022/01/08 06:06:53;;;;;;;60.70;53.43;;;;;;;-145.93;100.00;59239.47;4923330;29;20091;-82
2022/01/08 06:09:18;;;;;;;60.93;54.40;;;;;;;-145.93;100.00;59239.47;4925376;29;20100;-83
2022/01/08 06:11:44;;;;;;;60.00;53.80;;;;;;;-145.93;100.00;59239.47;4917961;29;20082;-84
2022/01/08 06:14:09;;;;;;;60.95;54.55;;;;;;;-145.93;100.00;59239.47;4913998;29;20091;-81
2022/01/08 06:16:37;;;;;;;65.10;54.85;;;;;;;-145.93;100.00;59239.47;4925461;29;20036;-84
2022/01/08 06:19:07;;;;;;;61.67;55.00;;;;;;;-145.93;100.00;59239.47;4898640;29;20094;-85
2022/01/08 06:21:36;;;;;;;65.65;55.10;;;;;;;-145.93;100.00;59239.47;4920064;29;20020;-85
2022/01/08 06:24:06;;;;;;;59.28;53.20;;;;;;;-145.93;100.00;59239.47;4912194;29;20087;-86
2022/01/08 06:26:32;;;;;;;60.08;53.70;;;;;;;-145.93;100.00;59239.47;4900694;29;20486;-85
2022/01/08 06:29:01;;;;;;;62.80;56.22;;;;;;;-145.93;100.00;59239.47;4914975;29;20027;-84
2022/01/08 06:31:27;;;;;;;62.10;55.17;;;;;;;-145.93;100.00;59239.47;4915229;29;20068;-86
2022/01/08 06:33:53;;;;;;;64.18;56.10;;;;;;;-145.93;100.00;59239.47;4922377;29;20051;-85
2022/01/08 06:36:19;;;;;;;62.97;54.92;;;;;;;-145.93;100.00;59239.47;4901526;29;20040;-84
2022/01/08 06:38:46;;;;;;;61.90;54.53;;;;;;;-145.93;100.00;59239.47;4910356;29;20147;-84
2022/01/08 06:41:11;;;;;;;61.38;54.60;;;;;;;-145.93;100.00;59239.47;4928745;29;20043;-84
2022/01/08 06:43:37;;;;;;;61.07;54.47;;;;;;;-145.93;100.00;59239.47;4918961;29;20071;-85
2022/01/08 06:46:02;;;;;;;63.87;55.73;;;;;;;-145.93;100.00;59239.47;4901302;29;20051;-85
2022/01/08 06:48:28;;;;;;;61.13;54.93;;;;;;;-145.93;100.00;59239.47;4924710;29;20082;-86
2022/01/08 06:50:53;;;;;;;61.17;54.77;;;;;;;-145.93;100.00;59239.47;4923354;29;20035;-85
2022/01/08 06:53:18;;;;;;;61.67;55.03;;;;;;;-145.93;100.00;59239.47;4907303;29;20036;-86
2022/01/08 06:55:44;;;;;;;64.50;56.50;;;;;;;-145.93;100.00;59239.47;4917695;29;20020;-85
2022/01/08 06:58:09;;;;;;;64.63;56.07;;;;;;;-145.93;100.00;59239.47;4908738;29;20024;-86
2022/01/08 07:00:35;;;;;;;60.43;53.73;;;;;;;-145.93;100.00;59239.47;4906680;29;20092;-86
2022/01/08 07:03:00;;;;;;;61.50;55.20;;;;;;;-145.93;100.00;59239.47;4901317;29;20096;-85
2022/01/08 07:05:26;;;;;;;68.97;53.93;;;;;;;-145.93;100.00;59239.47;4909812;29;20027;-84
2022/01/08 07:07:51;;;;;;;59.85;53.80;;;;;;;-145.93;100.00;59239.47;4906257;29;20028;-85
2022/01/08 07:10:17;;;;;;;62.37;55.40;;;;;;;-145.93;100.00;59239.47;4925320;29;20028;-86
2022/01/08 07:12:43;;;;;;;60.70;52.77;;;;;;;-145.93;100.00;59239.47;4938479;29;20032;-84
2022/01/08 07:15:09;;;;;;;60.40;54.28;;;;;;;-145.93;100.00;59239.47;4896689;29;20032;-83
2022/01/08 07:17:34;;;;;;;61.25;53.00;;;;;;;-145.93;100.00;59239.47;4913062;29;20098;-84
2022/01/08 07:19:59;;;;;;;59.67;53.27;;;;;;;-145.93;100.00;59239.47;4901941;29;20028;-85
2022/01/08 07:22:25;;;;;;;68.67;57.07;;;;;;;-145.93;100.00;59239.47;4917459;29;20028;-84
2022/01/08 07:24:53;;;;;;;62.33;55.60;;;;;;;-145.93;100.00;59239.47;4921044;29;20043;-85
2022/01/08 07:27:21;;;;;;;61.65;54.90;;;;;;;-145.93;100.00;59239.47;4909845;29;20020;-84
2022/01/08 07:29:47;;;;;;;60.03;53.90;;;;;;;-145.93;100.00;59239.47;4908330;29;20028;-85
2022/01/08 07:32:15;;;;;;;66.03;55.60;;;;;;;-145.93;100.00;59239.47;4930685;29;20043;-85
2022/01/08 07:34:43;;;;;;;61.28;54.67;;;;;;;-145.93;100.00;59239.47;4920468;29;20032;-85
2022/01/08 07:37:08;;;;;;;59.08;52.97;;;;;;;-145.93;100.00;59239.47;4911951;29;20035;-85
2022/01/08 07:39:34;;;;;;;65.40;56.07;;;;;;;-145.93;100.00;59239.47;4913912;29;20031;-85
2022/01/08 07:41:59;;;;;;;61.27;54.27;;;;;;;-145.93;100.00;59239.47;4914574;29;20359;-85
2022/01/08 07:44:24;;;;;;;63.13;55.67;;;;;;;-145.93;100.00;59239.47;4917700;29;20023;-85
2022/01/08 07:46:50;;;;;;;66.97;56.97;;;;;;;-145.93;100.00;59239.47;4912672;29;20326;-85
2022/01/08 07:49:18;;;;;;;67.50;56.87;;;;;;;-145.93;100.00;59239.47;4893451;29;20682;-87
2022/01/08 07:51:46;;;;;;;85.50;61.28;;;;;;;-145.93;100.00;59239.47;4917097;29;20024;-86
2022/01/08 07:54:18;;;;;;;61.80;55.30;;;;;;;-145.93;100.00;59239.47;4893061;29;20028;-86
2022/01/08 07:56:43;;;;;;;64.70;55.70;;;;;;;-145.93;100.00;59239.47;4893703;29;20059;-86
2022/01/08 07:59:11;;;;;;;62.80;56.00;;;;;;;-145.93;100.00;59239.47;4896353;29;20044;-85
2022/01/08 08:01:39;;;;;;;67.28;56.90;;;;;;;-145.93;100.00;59239.47;4928308;29;20020;-87
2022/01/08 08:04:08;;;;;;;66.05;56.70;;;;;;;-145.93;100.00;59239.47;4908996;29;20051;-87
2022/01/08 08:06:36;;;;;;;67.97;57.78;;;;;;;-145.93;100.00;59239.47;4900276;29;20036;-87
2022/01/08 08:09:02;;;;;;;67.05;56.05;;;;;;;-145.93;100.00;59239.47;4916359;29;20030;-86
2022/01/08 08:11:28;;;;;;;66.43;56.08;;;;;;;-145.93;100.00;59239.47;4913702;29;20040;-86
2022/01/08 08:13:54;;;;;;;69.97;57.93;;;;;;;-145.93;100.00;59239.47;4917725;29;20048;-85
2022/01/08 08:16:20;;;;;;;63.25;56.58;;;;;;;-145.93;100.00;59239.47;4897475;29;20044;-86
2022/01/08 08:18:45;;;;;;;65.05;55.97;;;;;;;-145.93;100.00;59239.47;4924837;29;20032;-85
2022/01/08 08:21:14;;;;;;;66.03;57.75;;;;;;;-145.93;100.00;59239.47;4930244;29;20024;-86
2022/01/08 08:23:39;;;;;;;68.38;57.70;;;;;;;-145.93;100.00;59239.47;4915122;29;20032;-86
2022/01/08 08:26:04;;;;;;;66.20;56.53;;;;;;;-145.93;100.00;59239.47;4894848;29;20032;-87
2022/01/08 08:28:30;;;;;;;76.07;59.27;;;;;;;-145.93;100.00;59239.47;4898274;29;20072;-87
2022/01/08 08:30:55;;;;;;;71.10;58.20;;;;;;;-145.93;100.00;59239.47;4900065;29;20072;-85
2022/01/08 08:33:21;;;;;;;63.40;56.50;;;;;;;-145.93;100.00;59239.47;4895591;29;20031;-87
2022/01/08 08:35:49;;;;;;;61.20;54.57;;;;;;;-145.93;100.00;59239.47;4908489;29;20550;-87
2022/01/08 08:38:14;;;;;;;71.18;57.38;;;;;;;-145.93;100.00;59239.47;4895051;29;20024;-85
2022/01/08 08:40:42;;;;;;;70.10;58.53;;;;;;;-145.93;100.00;59239.47;4922306;29;20035;-86
2022/01/08 08:43:15;;;;;;;69.65;57.90;;;;;;;-145.93;100.00;59239.47;4909399;29;20131;-87
2022/01/08 08:45:40;;;;;;;71.22;58.22;;;;;;;-145.93;100.00;59239.47;4913516;29;20016;-84
2022/01/08 08:48:05;;;;;;;62.53;55.80;;;;;;;-145.93;100.00;59239.47;4927680;29;20020;-86
2022/01/08 08:50:31;;;;;;;65.50;56.40;;;;;;;-145.93;100.00;59239.47;4932762;29;20424;-87
2022/01/08 08:52:56;;;;;;;71.10;57.63;;;;;;;-145.93;100.00;59239.47;4900914;29;20036;-85
2022/01/08 08:55:24;;;;;;;67.20;56.20;;;;;;;-145.93;100.00;59239.47;4898423;29;20039;-86
2022/01/08 08:57:51;;;;;;;64.03;55.45;;;;;;;-145.93;100.00;59239.47;4917228;29;20070;-86
2022/01/08 09:00:16;;;;;;;72.95;58.60;;;;;;;-145.93;100.00;59239.47;4913985;29;20032;-85
2022/01/08 09:02:42;;;;;;;103.50;66.27;;;;;;;-145.93;100.00;59239.47;4920392;29;20035;-84
2022/01/08 09:05:08;;;;;;;86.05;61.33;;;;;;;-145.93;100.00;59239.47;4958230;23;20031;-85
2022/01/08 09:07:34;;;;;;;68.60;57.00;;;;;;;-145.93;100.00;59239.47;4944544;29;20034;-87
2022/01/08 09:10:00;;;;;;;62.03;55.53;;;;;;;-145.93;100.00;59239.47;4945304;29;20122;-88
2022/01/08 09:12:26;;;;;;;69.00;57.65;;;;;;;-145.93;100.00;59239.47;4950801;28;20074;-86
2022/01/08 09:14:51;;;;;;;62.60;55.93;;;;;;;-145.93;100.00;59239.47;4951123;29;20400;-88
2022/01/08 09:17:17;;;;;;;72.30;58.30;;;;;;;-145.93;100.00;59239.47;4946120;28;20030;-87
2022/01/08 09:19:43;;;;;;;66.07;54.97;;;;;;;-145.93;100.00;59239.47;4950586;28;20023;-87
2022/01/08 09:22:14;;;;;;;67.40;57.17;;;;;;;-145.93;100.00;59239.47;4943451;28;20078;-89
2022/01/08 09:27:39;;;;;;;63.03;54.63;;;;;;;-145.93;100.00;59239.47;4972492;28;20038;-86
2022/01/08 09:30:10;;;;;;;66.15;56.20;;;;;;;-145.93;100.00;59239.47;4949924;28;20033;-90
2022/01/08 09:32:35;;;;;;;63.25;54.58;;;;;;;-145.93;100.00;59239.47;4954518;28;20018;-88
2022/01/08 09:35:01;;;;;;;60.57;54.20;;;;;;;-145.93;100.00;59239.47;4948239;29;20071;-89
2022/01/08 09:37:27;;;;;;;62.63;55.30;;;;;;;-145.93;100.00;59239.47;4948603;28;20102;-87
2022/01/08 09:39:55;;;;;;;59.87;53.43;;;;;;;-145.93;100.00;59239.47;4959667;28;20026;-86
2022/01/08 09:42:20;;;;;;;66.95;55.55;;;;;;;-145.93;100.00;59239.47;4959161;28;20026;-88
2022/01/08 09:45:42;;;;;;;63.27;56.47;;;;;;;-145.93;100.00;59239.47;4954611;29;20443;-87
2022/01/08 09:47:49;;;;;;;61.42;54.75;;;;;;;-145.93;100.00;59239.47;4963882;28;20107;-87
2022/01/08 09:50:17;;;;;;;63.10;56.10;;;;;;;-145.93;100.00;59239.47;4952153;28;20026;-87
2022/01/08 09:52:42;;;;;;;60.90;54.33;;;;;;;-145.93;100.00;59239.47;4952871;28;20026;-86
2022/01/08 09:55:28;;;;;;;60.03;53.80;;;;;;;-145.93;100.00;59239.47;4947285;29;20027;-87
2022/01/08 09:57:55;;;;;;;60.80;54.28;;;;;;;-145.93;100.00;59239.47;4947298;28;20551;-83
2022/01/08 10:00:21;;;;;;;60.70;54.13;;;;;;;-145.93;100.00;59239.47;4948022;29;20027;-83
2022/01/08 10:02:46;;;;;;;64.75;55.85;;;;;;;-145.93;100.00;59239.47;4945117;28;20039;-83
2022/01/08 10:05:15;;;;;;;62.87;53.33;;;;;;;-145.93;100.00;59239.47;4945585;29;20504;-87
2022/01/08 10:07:40;;;;;;;61.83;54.45;;;;;;;-145.93;100.00;59239.47;4956166;28;20054;-86
2022/01/08 10:10:17;;;;;;;58.65;52.53;;;;;;;-145.93;100.00;59239.47;4936873;28;20026;-85
2022/01/08 10:12:57;;;;;;;67.63;54.85;;;;;;;-145.93;100.00;59239.47;4945292;29;20023;-85
2022/01/08 10:18:26;;;;;;;61.38;53.75;;;;;;;-145.93;100.00;59239.47;4984291;28;20074;-87
2022/01/08 10:20:52;;;;;;;65.03;55.22;;;;;;;-145.93;100.00;59239.47;4942427;28;20090;-84
2022/01/08 10:23:21;;;;;;;59.95;53.45;;;;;;;-145.93;100.00;59239.47;4954933;28;20392;-85
2022/01/08 10:26:08;;;;;;;76.75;56.92;;;;;;;-145.93;100.00;59239.47;4958183;28;20046;-84
2022/01/08 10:28:53;;;;;;;68.82;55.85;;;;;;;-145.93;100.00;59239.47;4947627;28;20093;-86
2022/01/08 10:31:21;;;;;;;62.70;55.13;;;;;;;-145.93;100.00;59239.47;4951894;28;20042;-84
2022/01/08 10:33:53;;;;;;;64.32;55.40;;;;;;;-145.93;100.00;59239.47;4945711;28;20042;-88
2022/01/08 10:36:33;;;;;;;62.50;55.35;;;;;;;-145.93;100.00;59239.47;4945680;28;20027;-87
2022/01/08 10:39:00;;;;;;;63.22;54.67;;;;;;;-145.93;100.00;59239.47;4946582;28;20470;-86
2022/01/08 10:41:27;;;;;;;61.38;54.70;;;;;;;-145.93;100.00;59239.47;4932791;28;20061;-87
2022/01/08 10:44:10;;;;;;;;;;;;;;;-145.93;100.00;59239.47;4951072;28;20121;-85
2022/01/08 10:46:53;;;;;;;76.35;59.00;;;;;;;-145.93;100.00;59239.47;4943837;28;19928;-86
2022/01/08 10:49:31;;;;;;;65.22;55.40;;;;;;;-145.93;100.00;59239.47;4959737;28;20035;-86
2022/01/08 10:51:58;;;;;;;61.40;53.95;;;;;;;-145.93;100.00;59239.47;4966792;28;20023;-85
2022/01/08 10:54:28;;;;;;;61.83;54.88;;;;;;;-145.93;100.00;59239.47;4954320;28;20025;-86
2022/01/08 10:56:56;;;;;;;59.92;53.75;;;;;;;-145.93;100.00;59239.47;4945340;28;20055;-86
2022/01/08 10:59:25;;;;;;;60.13;53.72;;;;;;;-145.93;100.00;59239.47;4939797;29;20031;-86
2022/01/08 11:01:58;;;;;;;60.30;54.10;;;;;;;-145.93;100.00;59239.47;4955420;28;20026;-86
2022/01/08 11:04:56;;;;;;;60.25;53.72;;;;;;;-145.93;100.00;59239.47;4948249;28;20109;-87
2022/01/08 11:07:27;;;;;;;61.10;54.58;;;;;;;-145.93;100.00;59239.47;4965459;28;20022;-86
2022/01/08 11:09:56;;;;;;;63.20;55.17;;;;;;;-145.93;100.00;59239.47;4951857;28;20038;-86
2022/01/08 11:12:26;;;;;;;73.68;55.88;;;;;;;-145.93;100.00;59239.47;4950521;28;20080;-83
2022/01/08 11:17:29;;;;;;;60.87;54.37;;;;;;;-145.93;100.00;59239.47;4974162;28;20031;-84
2022/01/08 11:19:58;;;;;;;;;;;;;;;-145.93;100.00;59239.47;4978315;28;20400;-87
2022/01/08 11:22:29;;;;;;;62.08;54.35;;;;;;;-145.93;100.00;59239.47;4957548;28;19914;-86